createdAt,value
2018-07-30T00:00:33.334Z,28
2018-07-30T00:01:47.843Z,28
2018-07-30T00:03:01.774Z,28
2018-07-30T00:04:15.945Z,28
2018-07-30T00:05:31.220Z,28
2018-07-30T00:06:46.219Z,28
2018-07-30T00:08:01.611Z,28
2018-07-30T00:09:16.547Z,28
2018-07-30T00:10:31.235Z,28
2018-07-30T00:11:45.455Z,28
2018-07-30T00:13:00.323Z,28
2018-07-30T00:14:14.931Z,28
2018-07-30T00:15:29.308Z,28
2018-07-30T00:16:43.254Z,28
2018-07-30T00:17:57.447Z,28
2018-07-30T00:19:11.875Z,28
2018-07-30T00:20:26.596Z,28
2018-07-30T00:21:40.534Z,28
2018-07-30T00:22:54.558Z,28
2018-07-30T00:24:08.952Z,28
2018-07-30T00:25:23.922Z,28
2018-07-30T00:26:38.548Z,28
2018-07-30T00:27:53.094Z,28
2018-07-30T00:29:07.469Z,28
2018-07-30T00:30:21.724Z,28
2018-07-30T00:31:36.819Z,28
2018-07-30T00:32:51.521Z,28
2018-07-30T00:34:06.421Z,28
2018-07-30T00:35:21.398Z,28
2018-07-30T00:36:36.103Z,28
2018-07-30T00:37:50.762Z,28
2018-07-30T00:39:05.063Z,28
2018-07-30T00:40:19.009Z,28
2018-07-30T00:41:33.679Z,28
2018-07-30T00:42:48.141Z,28
2018-07-30T00:44:02.590Z,28
2018-07-30T00:45:17.809Z,28
2018-07-30T00:46:32.247Z,28
2018-07-30T00:47:46.964Z,28
2018-07-30T00:49:01.896Z,28
2018-07-30T00:50:16.568Z,28
2018-07-30T00:51:31.548Z,28
2018-07-30T00:52:45.957Z,28
2018-07-30T00:54:00.435Z,28
2018-07-30T00:55:14.749Z,28
2018-07-30T00:56:29.431Z,28
2018-07-30T00:57:44.162Z,28
2018-07-30T00:58:59.114Z,28
2018-07-30T01:00:13.566Z,28
2018-07-30T01:01:28.009Z,28
2018-07-30T01:02:42.464Z,28
2018-07-30T01:03:56.952Z,28
2018-07-30T01:05:11.402Z,28
2018-07-30T01:06:25.852Z,28
2018-07-30T01:07:39.852Z,28
2018-07-30T01:08:54.372Z,27
2018-07-30T01:10:09.460Z,27
2018-07-30T01:11:23.638Z,27
2018-07-30T01:12:38.389Z,27
2018-07-30T01:13:53.099Z,27
2018-07-30T01:15:07.345Z,27
2018-07-30T01:16:22.334Z,27
2018-07-30T01:17:37.067Z,27
2018-07-30T01:18:51.277Z,27
2018-07-30T01:20:05.705Z,27
2018-07-30T01:21:20.655Z,27
2018-07-30T01:22:35.650Z,27
2018-07-30T01:23:49.844Z,27
2018-07-30T01:25:04.695Z,27
2018-07-30T01:26:19.112Z,27
2018-07-30T01:27:33.543Z,27
2018-07-30T01:28:47.749Z,27
2018-07-30T01:30:01.456Z,27
2018-07-30T01:31:16.464Z,27
2018-07-30T01:32:31.412Z,27
2018-07-30T01:33:45.880Z,27
2018-07-30T01:35:00.357Z,27
2018-07-30T01:36:14.836Z,27
2018-07-30T01:37:29.284Z,27
2018-07-30T01:38:43.681Z,27
2018-07-30T01:39:58.401Z,27
2018-07-30T01:41:13.633Z,27
2018-07-30T01:42:28.565Z,27
2018-07-30T01:43:42.726Z,27
2018-07-30T01:44:56.927Z,27
2018-07-30T01:46:11.655Z,27
2018-07-30T01:47:26.126Z,27
2018-07-30T01:48:41.046Z,27
2018-07-30T01:49:55.187Z,27
2018-07-30T01:51:10.054Z,27
2018-07-30T01:52:24.730Z,27
2018-07-30T01:53:39.711Z,27
2018-07-30T01:54:54.385Z,27
2018-07-30T01:56:08.339Z,27
2018-07-30T01:57:22.996Z,27
2018-07-30T01:58:36.930Z,27
2018-07-30T01:59:51.906Z,27
2018-07-30T02:01:05.614Z,27
2018-07-30T02:02:19.568Z,27
2018-07-30T02:03:33.750Z,27
2018-07-30T02:04:48.185Z,27
2018-07-30T02:06:03.296Z,27
2018-07-30T02:07:17.809Z,27
2018-07-30T02:08:32.469Z,27
2018-07-30T02:09:47.155Z,27
2018-07-30T02:11:01.111Z,27
2018-07-30T02:12:15.589Z,27
2018-07-30T02:13:30.065Z,27
2018-07-30T02:14:44.004Z,27
2018-07-30T02:15:58.204Z,27
2018-07-30T02:17:12.692Z,27
2018-07-30T02:18:27.139Z,27
2018-07-30T02:19:41.585Z,27
2018-07-30T02:20:56.147Z,27
2018-07-30T02:22:11.079Z,27
2018-07-30T02:23:25.536Z,27
2018-07-30T02:24:39.959Z,27
2018-07-30T02:25:54.135Z,27
2018-07-30T02:27:08.921Z,27
2018-07-30T02:28:23.083Z,27
2018-07-30T02:29:37.291Z,27
2018-07-30T02:30:52.267Z,27
2018-07-30T02:32:06.929Z,27
2018-07-30T02:33:21.341Z,27
2018-07-30T02:34:35.790Z,27
2018-07-30T02:35:50.445Z,27
2018-07-30T02:37:05.584Z,27
2018-07-30T02:38:19.758Z,27
2018-07-30T02:39:34.601Z,27
2018-07-30T02:40:49.548Z,27
2018-07-30T02:42:03.724Z,27
2018-07-30T02:43:18.312Z,27
2018-07-30T02:44:32.991Z,27
2018-07-30T02:45:46.950Z,27
2018-07-30T02:47:01.427Z,27
2018-07-30T02:48:15.745Z,27
2018-07-30T02:49:30.495Z,27
2018-07-30T02:50:45.186Z,27
2018-07-30T02:51:59.417Z,27
2018-07-30T02:53:14.406Z,27
2018-07-30T02:54:29.337Z,27
2018-07-30T02:55:44.314Z,27
2018-07-30T02:56:58.772Z,27
2018-07-30T02:58:38.987Z,27
2018-07-30T02:59:53.429Z,27
2018-07-30T03:01:08.668Z,27
2018-07-30T03:02:23.353Z,27
2018-07-30T03:03:38.443Z,27
2018-07-30T03:04:53.113Z,27
2018-07-30T03:06:07.789Z,27
2018-07-30T03:07:22.225Z,27
2018-07-30T03:08:36.820Z,27
2018-07-30T03:09:51.273Z,27
2018-07-30T03:11:05.674Z,27
2018-07-30T03:12:20.266Z,27
2018-07-30T03:13:35.014Z,27
2018-07-30T03:14:49.673Z,27
2018-07-30T03:16:04.130Z,27
2018-07-30T03:17:18.568Z,27
2018-07-30T03:18:33.589Z,27
2018-07-30T03:19:48.807Z,27
2018-07-30T03:21:03.762Z,27
2018-07-30T03:22:18.458Z,27
2018-07-30T03:23:32.881Z,27
2018-07-30T03:24:47.939Z,27
2018-07-30T03:26:02.194Z,27
2018-07-30T03:27:16.647Z,27
2018-07-30T03:28:31.307Z,27
2018-07-30T03:29:46.605Z,27
2018-07-30T03:31:01.276Z,27
2018-07-30T03:32:16.044Z,27
2018-07-30T03:33:30.726Z,27
2018-07-30T03:34:45.435Z,27
2018-07-30T03:36:00.116Z,27
2018-07-30T03:37:14.416Z,27
2018-07-30T03:38:29.140Z,27
2018-07-30T03:39:44.027Z,27
2018-07-30T03:40:58.735Z,27
2018-07-30T03:42:12.979Z,27
2018-07-30T03:43:27.937Z,27
2018-07-30T03:44:43.460Z,27
2018-07-30T03:45:58.243Z,27
2018-07-30T03:47:12.459Z,27
2018-07-30T03:48:27.237Z,27
2018-07-30T03:49:42.016Z,27
2018-07-30T03:50:58.457Z,27
2018-07-30T03:52:13.153Z,27
2018-07-30T03:53:27.586Z,27
2018-07-30T03:54:41.866Z,27
2018-07-30T03:55:55.789Z,27
2018-07-30T03:57:10.748Z,27
2018-07-30T03:58:24.416Z,27
2018-07-30T03:59:38.669Z,27
2018-07-30T04:00:53.636Z,27
2018-07-30T04:02:07.805Z,27
2018-07-30T04:03:22.248Z,27
2018-07-30T04:04:37.241Z,27
2018-07-30T04:05:51.594Z,27
2018-07-30T04:07:06.515Z,27
2018-07-30T04:08:21.489Z,27
2018-07-30T04:09:36.572Z,27
2018-07-30T04:10:51.495Z,27
2018-07-30T04:12:05.916Z,27
2018-07-30T04:13:20.900Z,27
2018-07-30T04:14:34.889Z,27
2018-07-30T04:15:50.155Z,27
2018-07-30T04:17:05.000Z,27
2018-07-30T04:18:19.197Z,27
2018-07-30T04:19:34.144Z,27
2018-07-30T04:20:48.913Z,27
2018-07-30T04:22:03.662Z,28
2018-07-30T04:23:18.441Z,28
2018-07-30T04:24:32.878Z,28
2018-07-30T04:25:47.038Z,28
2018-07-30T04:27:02.010Z,28
2018-07-30T04:28:16.516Z,28
2018-07-30T04:29:30.953Z,28
2018-07-30T04:30:45.635Z,28
2018-07-30T04:32:00.654Z,28
2018-07-30T04:33:15.075Z,29
2018-07-30T04:34:29.599Z,29
2018-07-30T04:35:43.565Z,29
2018-07-30T04:36:57.776Z,29
2018-07-30T04:38:12.211Z,29
2018-07-30T04:39:26.192Z,30
2018-07-30T04:40:40.929Z,30
2018-07-30T04:41:54.991Z,30
2018-07-30T04:43:09.682Z,30
2018-07-30T04:44:24.121Z,30
2018-07-30T04:45:39.091Z,31
2018-07-30T04:46:54.090Z,31
2018-07-30T04:48:08.763Z,31
2018-07-30T04:49:23.104Z,31
2018-07-30T04:50:38.346Z,31
2018-07-30T04:51:53.360Z,31
2018-07-30T04:53:08.176Z,31
2018-07-30T04:54:22.635Z,32
2018-07-30T04:55:37.464Z,32
2018-07-30T04:56:52.541Z,32
2018-07-30T04:58:06.805Z,32
2018-07-30T04:59:21.573Z,32
2018-07-30T05:00:35.765Z,32
2018-07-30T05:01:49.942Z,32
2018-07-30T05:03:04.795Z,33
2018-07-30T05:04:18.998Z,33
2018-07-30T05:05:33.760Z,33
2018-07-30T05:06:48.260Z,33
2018-07-30T05:08:02.472Z,33
2018-07-30T05:09:16.481Z,33
2018-07-30T05:10:31.467Z,33
2018-07-30T05:11:46.381Z,33
2018-07-30T05:13:00.625Z,33
2018-07-30T05:14:15.623Z,33
2018-07-30T05:15:30.062Z,33
2018-07-30T05:16:45.063Z,34
2018-07-30T05:18:00.505Z,34
2018-07-30T05:19:15.308Z,34
2018-07-30T05:20:29.755Z,34
2018-07-30T05:21:43.977Z,34
2018-07-30T05:22:58.754Z,34
2018-07-30T05:24:13.367Z,34
2018-07-30T05:25:28.118Z,34
2018-07-30T05:26:42.957Z,34
2018-07-30T05:27:57.321Z,34
2018-07-30T05:29:11.542Z,34
2018-07-30T05:30:26.345Z,34
2018-07-30T05:31:41.334Z,33
2018-07-30T05:32:56.249Z,33
2018-07-30T05:34:10.716Z,33
2018-07-30T05:35:25.217Z,32
2018-07-30T05:36:40.350Z,32
2018-07-30T05:37:54.635Z,32
2018-07-30T05:39:09.072Z,31
2018-07-30T05:40:24.409Z,31
2018-07-30T05:41:39.095Z,31
2018-07-30T05:42:54.688Z,31
2018-07-30T05:44:09.480Z,31
2018-07-30T05:45:23.685Z,31
2018-07-30T05:46:37.911Z,31
2018-07-30T05:47:53.126Z,30
2018-07-30T05:49:07.856Z,30
2018-07-30T05:50:22.339Z,30
2018-07-30T05:51:36.765Z,30
2018-07-30T05:52:51.247Z,30
2018-07-30T05:54:05.684Z,30
2018-07-30T05:55:20.313Z,30
2018-07-30T05:56:34.788Z,30
2018-07-30T05:57:49.739Z,30
2018-07-30T05:59:04.150Z,30
2018-07-30T06:00:18.828Z,30
2018-07-30T06:01:33.823Z,30
2018-07-30T06:02:48.020Z,30
2018-07-30T06:04:02.702Z,29
2018-07-30T06:05:17.112Z,29
2018-07-30T06:06:31.047Z,29
2018-07-30T06:07:46.029Z,29
2018-07-30T06:09:00.568Z,29
2018-07-30T06:10:14.789Z,29
2018-07-30T06:11:29.621Z,29
2018-07-30T06:12:44.124Z,29
2018-07-30T06:13:59.123Z,29
2018-07-30T06:15:13.550Z,29
2018-07-30T06:16:27.741Z,29
2018-07-30T06:17:42.700Z,29
2018-07-30T06:18:56.910Z,29
2018-07-30T06:20:11.391Z,29
2018-07-30T06:23:59.485Z,29
2018-07-30T06:25:13.457Z,29
2018-07-30T06:26:27.892Z,29
2018-07-30T06:27:43.091Z,29
2018-07-30T06:28:57.637Z,29
2018-07-30T06:30:12.746Z,29
2018-07-30T06:31:27.450Z,29
2018-07-30T06:32:41.648Z,29
2018-07-30T06:33:56.631Z,29
2018-07-30T06:35:10.629Z,29
2018-07-30T06:36:25.343Z,29
2018-07-30T06:37:39.316Z,29
2018-07-30T06:38:54.565Z,29
2018-07-30T06:40:09.505Z,29
2018-07-30T06:41:24.231Z,29
2018-07-30T06:42:38.702Z,29
2018-07-30T06:43:53.471Z,29
2018-07-30T06:45:08.561Z,29
2018-07-30T06:46:22.768Z,29
2018-07-30T06:47:43.484Z,29
2018-07-30T06:48:57.935Z,29
2018-07-30T06:50:12.637Z,29
2018-07-30T06:51:27.414Z,29
2018-07-30T06:52:41.910Z,29
2018-07-30T06:53:56.172Z,29
2018-07-30T06:55:10.966Z,29
2018-07-30T06:56:25.442Z,29
2018-07-30T06:57:40.145Z,29
2018-07-30T06:58:54.343Z,29
2018-07-30T07:00:09.257Z,29
2018-07-30T07:01:23.703Z,29
2018-07-30T07:02:37.903Z,29
2018-07-30T07:03:52.422Z,29
2018-07-30T07:05:06.159Z,29
2018-07-30T07:06:20.857Z,29
2018-07-30T07:07:35.563Z,29
2018-07-30T07:08:50.196Z,29
2018-07-30T07:10:05.220Z,29
2018-07-30T07:11:19.409Z,29
2018-07-30T07:12:33.892Z,29
2018-07-30T07:13:48.150Z,29
2018-07-30T07:15:03.032Z,29
2018-07-30T07:16:17.515Z,29
2018-07-30T07:17:31.973Z,29
2018-07-30T07:18:46.165Z,29
2018-07-30T07:23:16.008Z,29
2018-07-30T07:24:30.469Z,29
2018-07-30T07:25:45.282Z,29
2018-07-30T07:26:59.623Z,29
2018-07-30T07:28:13.778Z,29
2018-07-30T07:29:28.572Z,29
2018-07-30T07:30:43.015Z,29
2018-07-30T07:31:57.666Z,29
2018-07-30T07:33:12.262Z,29
2018-07-30T07:34:26.488Z,29
2018-07-30T07:35:41.218Z,29
2018-07-30T07:36:56.012Z,29
2018-07-30T07:38:10.503Z,29
2018-07-30T07:39:25.513Z,29
2018-07-30T07:40:39.687Z,29
2018-07-30T07:41:55.024Z,29
2018-07-30T07:43:09.329Z,29
2018-07-30T07:44:24.320Z,29
2018-07-30T07:45:39.047Z,29
2018-07-30T07:46:53.256Z,29
2018-07-30T07:48:08.138Z,29
2018-07-30T07:49:22.900Z,29
2018-07-30T07:50:38.485Z,29
2018-07-30T07:51:53.315Z,29
2018-07-30T07:53:08.013Z,30
2018-07-30T07:54:22.525Z,30
2018-07-30T07:55:37.056Z,30
2018-07-30T07:56:51.794Z,30
2018-07-30T07:58:05.740Z,30
2018-07-30T07:59:20.217Z,30
2018-07-30T08:00:35.067Z,30
2018-07-30T08:01:49.056Z,30
2018-07-30T08:03:03.299Z,30
2018-07-30T08:04:17.742Z,30
2018-07-30T08:05:32.232Z,30
2018-07-30T08:06:46.920Z,30
2018-07-30T08:08:00.957Z,30
2018-07-30T08:09:15.031Z,30
2018-07-30T08:10:29.604Z,30
2018-07-30T08:11:44.450Z,30
2018-07-30T08:12:59.315Z,30
2018-07-30T08:14:13.940Z,30
2018-07-30T08:15:28.967Z,30
2018-07-30T08:16:43.051Z,30
2018-07-30T08:17:57.446Z,30
2018-07-30T08:19:12.527Z,30
2018-07-30T08:20:27.241Z,30
2018-07-30T08:21:42.076Z,30
2018-07-30T08:22:56.824Z,30
2018-07-30T08:24:11.334Z,30
2018-07-30T08:25:25.836Z,30
2018-07-30T08:26:40.560Z,30
2018-07-30T08:27:54.999Z,30
2018-07-30T08:29:09.860Z,30
2018-07-30T08:30:25.054Z,30
2018-07-30T08:31:40.371Z,30
2018-07-30T08:32:55.137Z,30
2018-07-30T08:34:09.890Z,30
2018-07-30T08:35:24.122Z,30
2018-07-30T08:36:38.104Z,30
2018-07-30T08:37:52.853Z,30
2018-07-30T08:39:07.706Z,30
2018-07-30T08:40:21.932Z,30
2018-07-30T08:41:36.426Z,30
2018-07-30T08:42:50.634Z,30
2018-07-30T08:44:05.693Z,30
2018-07-30T08:45:20.451Z,30
2018-07-30T08:46:35.641Z,30
2018-07-30T08:47:50.222Z,30
2018-07-30T08:49:05.624Z,30
2018-07-30T08:50:20.405Z,30
2018-07-30T08:51:35.210Z,30
2018-07-30T08:52:49.995Z,30
2018-07-30T08:54:04.279Z,30
2018-07-30T08:55:19.454Z,30
2018-07-30T08:56:35.039Z,30
2018-07-30T08:57:49.352Z,30
2018-07-30T08:59:04.364Z,30
2018-07-30T09:00:18.709Z,30
2018-07-30T09:01:33.251Z,30
2018-07-30T09:02:48.476Z,30
2018-07-30T09:04:02.947Z,30
2018-07-30T09:05:17.919Z,30
2018-07-30T09:06:32.414Z,30
2018-07-30T09:07:47.219Z,30
2018-07-30T09:09:01.759Z,30
2018-07-30T09:10:15.991Z,30
2018-07-30T09:11:30.508Z,30
2018-07-30T09:12:45.057Z,30
2018-07-30T09:13:59.648Z,30
2018-07-30T09:15:14.577Z,30
2018-07-30T09:16:28.544Z,30
2018-07-30T09:17:43.027Z,30
2018-07-30T09:18:58.041Z,30
2018-07-30T09:20:12.920Z,30
2018-07-30T09:21:26.934Z,30
2018-07-30T09:22:41.133Z,30
2018-07-30T09:23:55.852Z,30
2018-07-30T09:25:10.074Z,30
2018-07-30T09:26:24.590Z,30
2018-07-30T09:27:39.141Z,30
2018-07-30T09:28:53.584Z,30
2018-07-30T09:30:08.141Z,30
2018-07-30T09:31:22.611Z,30
2018-07-30T09:32:36.868Z,30
2018-07-30T09:33:52.147Z,30
2018-07-30T09:35:06.593Z,30
2018-07-30T09:36:20.586Z,30
2018-07-30T09:37:35.077Z,30
2018-07-30T09:38:50.218Z,30
2018-07-30T09:40:05.062Z,30
2018-07-30T09:41:19.492Z,30
2018-07-30T09:42:34.216Z,30
2018-07-30T09:43:48.689Z,30
2018-07-30T09:45:03.942Z,31
2018-07-30T09:46:18.973Z,31
2018-07-30T09:47:33.704Z,31
2018-07-30T09:48:47.975Z,31
2018-07-30T09:50:02.732Z,31
2018-07-30T09:51:17.226Z,31
2018-07-30T09:52:32.350Z,31
2018-07-30T09:53:47.326Z,31
2018-07-30T09:55:14.865Z,31
2018-07-30T09:56:29.779Z,31
2018-07-30T09:57:45.115Z,31
2018-07-30T09:58:59.076Z,31
2018-07-30T10:00:13.799Z,31
2018-07-30T10:01:28.352Z,31
2018-07-30T10:02:42.823Z,31
2018-07-30T10:03:57.598Z,31
2018-07-30T10:05:12.121Z,31
2018-07-30T10:06:27.080Z,31
2018-07-30T10:07:41.346Z,31
2018-07-30T10:08:56.317Z,31
2018-07-30T10:10:11.606Z,31
2018-07-30T10:11:25.754Z,31
2018-07-30T10:12:40.216Z,31
2018-07-30T10:13:53.692Z,31
2018-07-30T10:15:08.173Z,31
2018-07-30T10:16:22.951Z,31
2018-07-30T10:17:38.247Z,31
2018-07-30T10:18:53.069Z,31
2018-07-30T10:20:07.829Z,31
2018-07-30T10:21:22.919Z,31
2018-07-30T10:22:37.922Z,31
2018-07-30T10:23:52.708Z,31
2018-07-30T10:25:07.525Z,31
2018-07-30T10:26:21.700Z,31
2018-07-30T10:27:36.188Z,31
2018-07-30T10:28:50.714Z,31
2018-07-30T10:30:05.451Z,31
2018-07-30T10:31:20.150Z,31
2018-07-30T10:32:34.831Z,31
2018-07-30T10:33:49.793Z,31
2018-07-30T10:35:05.042Z,31
2018-07-30T10:36:19.031Z,31
2018-07-30T10:37:33.509Z,31
2018-07-30T10:38:48.004Z,31
2018-07-30T10:40:02.430Z,31
2018-07-30T10:41:16.980Z,31
2018-07-30T10:42:31.834Z,31
2018-07-30T10:43:46.224Z,31
2018-07-30T10:45:00.673Z,31
2018-07-30T10:46:15.557Z,31
2018-07-30T10:47:30.643Z,31
2018-07-30T10:48:45.348Z,31
2018-07-30T10:49:59.719Z,31
2018-07-30T10:51:13.944Z,31
2018-07-30T10:52:28.787Z,31
2018-07-30T10:53:43.863Z,31
2018-07-30T10:54:58.367Z,31
2018-07-30T10:56:12.648Z,31
2018-07-30T10:57:26.828Z,31
2018-07-30T10:58:41.653Z,31
2018-07-30T10:59:56.139Z,31
2018-07-30T11:01:11.919Z,31
2018-07-30T11:02:26.849Z,31
2018-07-30T11:03:41.051Z,31
2018-07-30T11:04:55.248Z,31
2018-07-30T11:06:09.842Z,31
2018-07-30T11:07:24.888Z,31
2018-07-30T11:08:39.671Z,31
2018-07-30T11:09:54.247Z,31
2018-07-30T11:11:08.691Z,31
2018-07-30T11:12:22.979Z,31
2018-07-30T11:13:38.136Z,31
2018-07-30T11:14:52.779Z,31
2018-07-30T11:16:06.716Z,31
2018-07-30T11:17:21.172Z,31
2018-07-30T11:18:36.440Z,31
2018-07-30T11:19:51.172Z,31
2018-07-30T11:21:05.856Z,31
2018-07-30T11:22:20.755Z,31
2018-07-30T11:23:35.383Z,31
2018-07-30T11:24:50.269Z,31
2018-07-30T11:26:04.852Z,31
2018-07-30T11:27:19.933Z,31
2018-07-30T11:28:35.216Z,31
2018-07-30T11:29:49.456Z,31
2018-07-30T11:31:04.470Z,31
2018-07-30T11:32:19.210Z,31
2018-07-30T11:33:34.028Z,31
2018-07-30T11:34:48.734Z,31
2018-07-30T11:36:03.206Z,31
2018-07-30T11:37:17.964Z,31
2018-07-30T11:38:32.608Z,31
2018-07-30T11:39:46.305Z,31
2018-07-30T11:41:00.507Z,32
2018-07-30T11:42:15.077Z,32
2018-07-30T11:43:30.199Z,31
2018-07-30T11:44:44.686Z,32
2018-07-30T11:45:58.935Z,32
2018-07-30T11:47:13.643Z,32
2018-07-30T11:48:28.501Z,32
2018-07-30T11:49:43.959Z,32
2018-07-30T11:50:58.420Z,32
2018-07-30T11:52:13.216Z,32
2018-07-30T11:53:27.718Z,32
2018-07-30T11:54:42.331Z,32
2018-07-30T11:55:57.377Z,32
2018-07-30T11:57:11.861Z,32
2018-07-30T11:58:26.793Z,32
2018-07-30T11:59:41.377Z,32
2018-07-30T12:00:56.208Z,32
2018-07-30T12:02:11.280Z,32
2018-07-30T12:03:25.749Z,32
2018-07-30T12:04:40.322Z,32
2018-07-30T12:05:54.799Z,32
2018-07-30T12:07:09.050Z,32
2018-07-30T12:08:23.603Z,32
2018-07-30T12:09:37.893Z,32
2018-07-30T12:10:51.988Z,32
2018-07-30T12:12:07.001Z,32
2018-07-30T12:13:22.037Z,32
2018-07-30T12:14:37.120Z,32
2018-07-30T12:15:51.864Z,32
2018-07-30T12:17:06.776Z,32
2018-07-30T12:18:21.640Z,32
2018-07-30T12:19:35.741Z,32
2018-07-30T12:20:50.543Z,32
2018-07-30T12:22:05.357Z,32
2018-07-30T12:23:19.625Z,32
2018-07-30T12:24:34.751Z,32
2018-07-30T12:25:48.939Z,32
2018-07-30T12:27:03.921Z,32
2018-07-30T12:28:17.685Z,32
2018-07-30T12:29:32.144Z,32
2018-07-30T12:30:46.873Z,32
2018-07-30T12:32:01.397Z,32
2018-07-30T12:33:16.456Z,32
2018-07-30T12:34:30.456Z,32
2018-07-30T12:35:45.495Z,32
2018-07-30T12:37:00.280Z,32
2018-07-30T12:38:14.762Z,32
2018-07-30T12:39:28.852Z,32
2018-07-30T12:40:43.392Z,32
2018-07-30T12:41:58.316Z,32
2018-07-30T12:43:12.911Z,32
2018-07-30T12:44:27.925Z,32
2018-07-30T12:45:42.276Z,32
2018-07-30T12:46:56.848Z,32
2018-07-30T12:48:11.253Z,32
2018-07-30T12:49:26.183Z,32
2018-07-30T12:50:41.954Z,32
2018-07-30T12:51:56.606Z,32
2018-07-30T12:53:11.662Z,32
2018-07-30T12:54:26.447Z,32
2018-07-30T12:55:40.725Z,32
2018-07-30T12:56:54.807Z,32
2018-07-30T12:58:09.848Z,32
2018-07-30T12:59:24.749Z,32
2018-07-30T13:00:39.550Z,32
2018-07-30T13:01:54.052Z,32
2018-07-30T13:03:09.406Z,32
2018-07-30T13:04:24.511Z,32
2018-07-30T13:05:38.995Z,32
2018-07-30T13:06:53.988Z,32
2018-07-30T13:08:08.006Z,32
2018-07-30T13:09:22.938Z,32
2018-07-30T13:10:37.628Z,32
2018-07-30T13:11:52.688Z,32
2018-07-30T13:13:07.398Z,32
2018-07-30T13:14:21.500Z,32
2018-07-30T13:15:35.979Z,32
2018-07-30T13:16:50.477Z,32
2018-07-30T13:18:05.207Z,32
2018-07-30T13:19:19.189Z,32
2018-07-30T13:20:33.665Z,32
2018-07-30T13:21:49.173Z,32
2018-07-30T13:23:03.704Z,32
2018-07-30T13:24:18.613Z,32
2018-07-30T13:25:33.503Z,32
2018-07-30T13:26:49.562Z,32
2018-07-30T13:28:03.672Z,32
2018-07-30T13:29:18.543Z,32
2018-07-30T13:30:33.370Z,32
2018-07-30T13:31:48.400Z,32
2018-07-30T13:33:03.297Z,32
2018-07-30T13:34:17.331Z,32
2018-07-30T13:35:32.382Z,32
2018-07-30T13:36:47.690Z,32
2018-07-30T13:38:02.385Z,32
2018-07-30T13:39:16.856Z,32
2018-07-30T13:40:31.385Z,32
2018-07-30T13:41:46.276Z,32
2018-07-30T13:43:00.541Z,32
2018-07-30T13:44:15.610Z,32
2018-07-30T13:45:30.402Z,32
2018-07-30T13:46:45.088Z,32
2018-07-30T13:48:00.029Z,32
2018-07-30T13:49:14.057Z,32
2018-07-30T13:50:28.316Z,32
2018-07-30T13:51:42.623Z,32
2018-07-30T13:52:56.367Z,32
2018-07-30T13:54:11.156Z,32
2018-07-30T13:55:26.477Z,32
2018-07-30T13:56:40.456Z,32
2018-07-30T13:57:54.926Z,32
2018-07-30T13:59:08.911Z,32
2018-07-30T14:00:24.358Z,32
2018-07-30T14:01:38.334Z,32
2018-07-30T14:02:52.936Z,32
2018-07-30T14:04:06.385Z,32
2018-07-30T14:05:20.538Z,32
2018-07-30T14:06:36.602Z,32
2018-07-30T14:07:51.456Z,32
2018-07-30T14:09:05.731Z,32
2018-07-30T14:10:20.075Z,32
2018-07-30T14:11:34.631Z,32
2018-07-30T14:12:49.430Z,32
2018-07-30T14:14:03.715Z,32
2018-07-30T14:15:18.776Z,32
2018-07-30T14:16:33.351Z,32
2018-07-30T14:17:47.490Z,32
2018-07-30T14:19:02.361Z,32
2018-07-30T14:20:17.630Z,32
2018-07-30T14:21:31.902Z,32
2018-07-30T14:22:47.057Z,32
2018-07-30T14:24:01.808Z,32
2018-07-30T14:25:16.499Z,32
2018-07-30T14:26:31.268Z,32
2018-07-30T14:27:45.682Z,32
2018-07-30T14:28:59.898Z,32
2018-07-30T14:30:14.348Z,32
2018-07-30T14:31:29.217Z,32
2018-07-30T14:32:43.763Z,32
2018-07-30T14:33:58.805Z,32
2018-07-30T14:35:13.272Z,32
2018-07-30T14:36:27.772Z,32
2018-07-30T14:37:42.986Z,32
2018-07-30T14:38:57.602Z,32
2018-07-30T14:40:12.116Z,32
2018-07-30T14:41:26.610Z,32
2018-07-30T14:42:41.374Z,32
2018-07-30T14:43:56.399Z,32
2018-07-30T14:45:10.429Z,32
2018-07-30T14:46:25.021Z,32
2018-07-30T14:47:39.531Z,32
2018-07-30T14:48:54.370Z,33
2018-07-30T14:50:09.409Z,33
2018-07-30T14:51:23.746Z,33
2018-07-30T14:52:38.214Z,32
2018-07-30T14:53:53.127Z,32
2018-07-30T14:55:08.306Z,32
2018-07-30T14:56:23.140Z,32
2018-07-30T14:57:37.558Z,32
2018-07-30T14:58:52.200Z,32
2018-07-30T15:00:07.448Z,33
2018-07-30T15:01:21.979Z,33
2018-07-30T15:02:36.746Z,33
2018-07-30T15:03:51.562Z,33
2018-07-30T15:05:06.354Z,33
2018-07-30T15:06:21.274Z,33
2018-07-30T15:07:35.838Z,33
2018-07-30T15:08:50.913Z,33
2018-07-30T15:10:05.546Z,33
2018-07-30T15:11:19.535Z,33
2018-07-30T15:12:33.945Z,33
2018-07-30T15:13:49.383Z,33
2018-07-30T15:15:04.230Z,33
2018-07-30T15:16:18.963Z,33
2018-07-30T15:17:33.895Z,33
2018-07-30T15:18:48.532Z,33
2018-07-30T15:20:02.815Z,33
2018-07-30T15:21:17.364Z,33
2018-07-30T15:22:32.131Z,33
2018-07-30T15:23:46.697Z,33
2018-07-30T15:25:01.745Z,33
2018-07-30T15:26:16.511Z,33
2018-07-30T15:27:31.605Z,33
2018-07-30T15:28:46.383Z,33
2018-07-30T15:30:01.526Z,33
2018-07-30T15:31:16.040Z,33
2018-07-30T15:32:30.582Z,33
2018-07-30T15:33:45.562Z,32
2018-07-30T15:35:00.586Z,33
2018-07-30T15:36:15.081Z,32
2018-07-30T15:37:29.513Z,32
2018-07-30T15:38:43.989Z,32
2018-07-30T15:39:58.768Z,32
2018-07-30T15:41:13.247Z,32
2018-07-30T15:42:27.921Z,32
2018-07-30T15:43:42.938Z,32
2018-07-30T15:44:57.969Z,32
2018-07-30T15:46:12.495Z,32
2018-07-30T15:47:27.261Z,32
2018-07-30T15:48:42.028Z,32
2018-07-30T15:49:56.963Z,32
2018-07-30T15:51:11.173Z,32
2018-07-30T15:52:25.960Z,32
2018-07-30T15:53:40.253Z,32
2018-07-30T15:54:54.955Z,32
2018-07-30T15:56:10.056Z,32
2018-07-30T15:57:24.258Z,32
2018-07-30T15:58:38.770Z,32
2018-07-30T15:59:53.524Z,32
2018-07-30T16:01:08.637Z,32
2018-07-30T16:02:22.884Z,32
2018-07-30T16:03:37.902Z,32
2018-07-30T16:04:52.671Z,32
2018-07-30T16:06:07.718Z,32
2018-07-30T16:07:21.966Z,32
2018-07-30T16:08:36.715Z,32
2018-07-30T16:09:51.219Z,32
2018-07-30T16:11:06.391Z,32
2018-07-30T16:12:21.101Z,32
2018-07-30T16:13:35.617Z,32
2018-07-30T16:14:50.313Z,32
2018-07-30T16:16:04.900Z,32
2018-07-30T16:17:19.695Z,32
2018-07-30T16:18:34.169Z,32
2018-07-30T16:19:48.736Z,32
2018-07-30T16:21:03.561Z,32
2018-07-30T16:22:17.577Z,32
2018-07-30T16:23:33.390Z,32
2018-07-30T16:24:48.147Z,32
2018-07-30T16:26:02.862Z,32
2018-07-30T16:27:19.275Z,32
2018-07-30T16:28:36.227Z,32
2018-07-30T16:29:51.665Z,32
2018-07-30T16:31:07.048Z,32
2018-07-30T16:32:22.068Z,32
2018-07-30T16:33:36.261Z,32
2018-07-30T16:34:51.086Z,32
2018-07-30T16:36:05.725Z,32
2018-07-30T16:37:20.303Z,32
2018-07-30T16:38:35.064Z,32
2018-07-30T16:39:49.822Z,32
2018-07-30T16:41:04.856Z,32
2018-07-30T16:42:20.244Z,32
2018-07-30T16:43:34.796Z,32
2018-07-30T16:44:49.502Z,32
2018-07-30T17:11:51.982Z,32
2018-07-30T17:13:06.714Z,32
2018-07-30T17:14:21.492Z,32
2018-07-30T17:15:35.560Z,32
2018-07-30T17:16:50.364Z,32
2018-07-30T17:18:05.105Z,32
2018-07-30T17:19:19.855Z,32
2018-07-30T17:20:34.758Z,32
2018-07-30T17:21:49.314Z,32
2018-07-30T17:23:04.544Z,32
2018-07-30T17:24:19.064Z,32
2018-07-30T17:25:34.067Z,32
2018-07-30T17:26:49.809Z,32
2018-07-30T17:28:04.904Z,32
2018-07-30T17:29:19.721Z,32
2018-07-30T17:30:34.450Z,32
2018-07-30T17:31:48.942Z,32
2018-07-30T17:33:03.235Z,32
2018-07-30T17:34:18.269Z,32
2018-07-30T17:35:32.831Z,32
2018-07-30T17:36:47.790Z,32
2018-07-30T17:38:02.173Z,32
2018-07-30T17:39:16.983Z,32
2018-07-30T17:40:31.570Z,32
2018-07-30T17:41:46.646Z,32
2018-07-30T17:43:01.196Z,32
2018-07-30T17:44:15.466Z,32
2018-07-30T17:45:30.027Z,32
2018-07-30T17:46:44.859Z,32
2018-07-30T17:47:59.145Z,32
2018-07-30T17:49:13.392Z,32
2018-07-30T17:50:27.608Z,32
2018-07-30T17:51:42.102Z,32
2018-07-30T17:52:57.255Z,32
2018-07-30T17:54:12.492Z,32
2018-07-30T17:55:26.970Z,32
2018-07-30T17:56:41.726Z,32
2018-07-30T17:57:56.249Z,32
2018-07-30T17:59:10.232Z,32
2018-07-30T18:00:24.495Z,32
2018-07-30T18:01:39.255Z,32
2018-07-30T18:02:57.368Z,32
2018-07-30T18:04:11.706Z,32
2018-07-30T18:05:26.687Z,32
2018-07-30T18:06:41.921Z,32
2018-07-30T18:07:57.050Z,32
2018-07-30T18:09:11.781Z,32
2018-07-30T18:10:26.383Z,32
2018-07-30T18:11:41.048Z,32
2018-07-30T18:12:55.655Z,32
2018-07-30T18:14:10.378Z,32
2018-07-30T18:15:25.156Z,32
2018-07-30T18:16:39.267Z,32